sensor_id;sensor_type;location;lat;lon;timestamp;P1;durP1;ratioP1;P2;durP2;ratioP2
23614;SDS011;11985;49.404;7.734;2023-06-22T00:04:29;9.15;;;7.05;;
23614;SDS011;11985;49.404;7.734;2023-06-22T00:09:31;9.90;;;6.53;;
23614;SDS011;11985;49.404;7.734;2023-06-22T00:14:34;9.52;;;7.68;;
23614;SDS011;11985;49.404;7.734;2023-06-22T00:19:36;14.25;;;8.07;;
23614;SDS011;11985;49.404;7.734;2023-06-22T00:24:40;17.90;;;9.05;;
23614;SDS011;11985;49.404;7.734;2023-06-22T00:29:43;14.27;;;8.20;;
23614;SDS011;11985;49.404;7.734;2023-06-22T00:34:44;10.25;;;8.13;;
23614;SDS011;11985;49.404;7.734;2023-06-22T00:39:46;13.25;;;8.18;;
23614;SDS011;11985;49.404;7.734;2023-06-22T00:44:49;9.23;;;8.13;;
23614;SDS011;11985;49.404;7.734;2023-06-22T00:49:51;10.07;;;7.93;;
23614;SDS011;11985;49.404;7.734;2023-06-22T00:54:52;13.23;;;8.68;;
23614;SDS011;11985;49.404;7.734;2023-06-22T00:59:56;19.25;;;8.63;;
23614;SDS011;11985;49.404;7.734;2023-06-22T01:04:58;11.45;;;8.48;;
23614;SDS011;11985;49.404;7.734;2023-06-22T01:10:03;10.80;;;8.43;;
23614;SDS011;11985;49.404;7.734;2023-06-22T01:15:10;12.57;;;9.10;;
23614;SDS011;11985;49.404;7.734;2023-06-22T01:20:23;10.53;;;8.40;;
23614;SDS011;11985;49.404;7.734;2023-06-22T01:25:28;10.82;;;8.93;;
23614;SDS011;11985;49.404;7.734;2023-06-22T01:30:37;10.23;;;8.18;;
23614;SDS011;11985;49.404;7.734;2023-06-22T01:35:39;12.52;;;8.52;;
23614;SDS011;11985;49.404;7.734;2023-06-22T01:40:41;13.23;;;9.05;;
23614;SDS011;11985;49.404;7.734;2023-06-22T01:45:44;9.52;;;8.52;;
23614;SDS011;11985;49.404;7.734;2023-06-22T01:50:46;11.77;;;9.02;;
23614;SDS011;11985;49.404;7.734;2023-06-22T01:55:48;13.20;;;9.38;;
23614;SDS011;11985;49.404;7.734;2023-06-22T02:00:53;11.93;;;8.65;;
23614;SDS011;11985;49.404;7.734;2023-06-22T02:06:01;11.32;;;8.77;;
23614;SDS011;11985;49.404;7.734;2023-06-22T02:11:05;13.57;;;8.93;;
23614;SDS011;11985;49.404;7.734;2023-06-22T02:16:10;13.45;;;9.43;;
23614;SDS011;11985;49.404;7.734;2023-06-22T02:21:12;12.48;;;9.55;;
23614;SDS011;11985;49.404;7.734;2023-06-22T02:26:17;13.32;;;9.73;;
23614;SDS011;11985;49.404;7.734;2023-06-22T02:31:20;11.63;;;8.88;;
23614;SDS011;11985;49.404;7.734;2023-06-22T02:36:22;11.30;;;8.77;;
23614;SDS011;11985;49.404;7.734;2023-06-22T02:41:23;12.38;;;8.60;;
23614;SDS011;11985;49.404;7.734;2023-06-22T02:46:26;11.52;;;8.52;;
23614;SDS011;11985;49.404;7.734;2023-06-22T02:51:28;13.07;;;9.20;;
23614;SDS011;11985;49.404;7.734;2023-06-22T02:56:31;13.25;;;9.23;;
23614;SDS011;11985;49.404;7.734;2023-06-22T03:01:34;11.05;;;8.88;;
23614;SDS011;11985;49.404;7.734;2023-06-22T03:06:39;11.88;;;9.60;;
23614;SDS011;11985;49.404;7.734;2023-06-22T03:11:41;12.55;;;7.85;;
23614;SDS011;11985;49.404;7.734;2023-06-22T03:16:44;12.30;;;8.43;;
23614;SDS011;11985;49.404;7.734;2023-06-22T03:21:45;14.30;;;8.75;;
23614;SDS011;11985;49.404;7.734;2023-06-22T03:26:47;11.52;;;8.80;;
23614;SDS011;11985;49.404;7.734;2023-06-22T03:31:50;13.05;;;8.70;;
23614;SDS011;11985;49.404;7.734;2023-06-22T03:36:51;9.52;;;8.35;;
23614;SDS011;11985;49.404;7.734;2023-06-22T03:41:53;13.43;;;8.63;;
23614;SDS011;11985;49.404;7.734;2023-06-22T03:46:56;14.35;;;10.32;;
23614;SDS011;11985;49.404;7.734;2023-06-22T03:51:57;15.20;;;10.05;;
23614;SDS011;11985;49.404;7.734;2023-06-22T03:56:59;12.57;;;9.82;;
23614;SDS011;11985;49.404;7.734;2023-06-22T04:02:02;12.00;;;9.73;;
23614;SDS011;11985;49.404;7.734;2023-06-22T04:07:04;13.48;;;10.90;;
23614;SDS011;11985;49.404;7.734;2023-06-22T04:12:06;12.48;;;9.57;;
23614;SDS011;11985;49.404;7.734;2023-06-22T04:17:09;12.90;;;9.45;;
23614;SDS011;11985;49.404;7.734;2023-06-22T04:22:15;15.18;;;9.52;;
23614;SDS011;11985;49.404;7.734;2023-06-22T04:27:16;14.98;;;10.43;;
23614;SDS011;11985;49.404;7.734;2023-06-22T04:32:20;13.82;;;10.55;;
23614;SDS011;11985;49.404;7.734;2023-06-22T04:37:21;16.15;;;10.88;;
23614;SDS011;11985;49.404;7.734;2023-06-22T04:42:24;15.32;;;10.88;;
23614;SDS011;11985;49.404;7.734;2023-06-22T04:47:28;13.38;;;10.82;;
23614;SDS011;11985;49.404;7.734;2023-06-22T04:52:29;16.77;;;11.23;;
23614;SDS011;11985;49.404;7.734;2023-06-22T04:57:31;16.40;;;12.10;;
23614;SDS011;11985;49.404;7.734;2023-06-22T05:02:35;17.58;;;12.63;;
23614;SDS011;11985;49.404;7.734;2023-06-22T05:07:37;15.40;;;11.93;;
23614;SDS011;11985;49.404;7.734;2023-06-22T05:12:40;14.02;;;12.00;;
23614;SDS011;11985;49.404;7.734;2023-06-22T05:17:44;14.32;;;12.15;;
23614;SDS011;11985;49.404;7.734;2023-06-22T05:22:46;17.42;;;14.02;;
23614;SDS011;11985;49.404;7.734;2023-06-22T05:27:47;15.38;;;12.65;;
23614;SDS011;11985;49.404;7.734;2023-06-22T05:32:52;17.40;;;12.18;;
23614;SDS011;11985;49.404;7.734;2023-06-22T05:37:53;15.95;;;12.52;;
23614;SDS011;11985;49.404;7.734;2023-06-22T05:42:55;16.17;;;12.93;;
23614;SDS011;11985;49.404;7.734;2023-06-22T05:47:58;16.20;;;12.55;;
23614;SDS011;11985;49.404;7.734;2023-06-22T05:52:59;17.48;;;12.00;;
23614;SDS011;11985;49.404;7.734;2023-06-22T05:58:01;18.73;;;12.32;;
23614;SDS011;11985;49.404;7.734;2023-06-22T06:03:05;17.02;;;11.45;;
23614;SDS011;11985;49.404;7.734;2023-06-22T06:08:06;14.38;;;11.18;;
23614;SDS011;11985;49.404;7.734;2023-06-22T06:13:08;14.45;;;11.52;;
23614;SDS011;11985;49.404;7.734;2023-06-22T06:18:11;16.60;;;11.65;;
23614;SDS011;11985;49.404;7.734;2023-06-22T06:23:14;16.52;;;11.98;;
23614;SDS011;11985;49.404;7.734;2023-06-22T06:28:16;16.67;;;12.48;;
23614;SDS011;11985;49.404;7.734;2023-06-22T06:33:19;14.52;;;12.25;;
23614;SDS011;11985;49.404;7.734;2023-06-22T06:38:21;15.55;;;11.35;;
23614;SDS011;11985;49.404;7.734;2023-06-22T06:43:22;15.90;;;10.45;;
23614;SDS011;11985;49.404;7.734;2023-06-22T06:48:26;15.50;;;12.02;;
23614;SDS011;11985;49.404;7.734;2023-06-22T06:53:27;17.33;;;10.77;;
23614;SDS011;11985;49.404;7.734;2023-06-22T06:58:29;14.60;;;10.35;;
23614;SDS011;11985;49.404;7.734;2023-06-22T07:03:32;14.55;;;11.13;;
23614;SDS011;11985;49.404;7.734;2023-06-22T07:08:34;12.23;;;10.02;;
23614;SDS011;11985;49.404;7.734;2023-06-22T07:13:36;13.90;;;8.95;;
23614;SDS011;11985;49.404;7.734;2023-06-22T07:18:40;11.82;;;8.77;;
23614;SDS011;11985;49.404;7.734;2023-06-22T07:23:42;11.93;;;8.40;;
23614;SDS011;11985;49.404;7.734;2023-06-22T07:28:43;10.43;;;7.78;;
23614;SDS011;11985;49.404;7.734;2023-06-22T07:33:46;10.38;;;7.97;;
23614;SDS011;11985;49.404;7.734;2023-06-22T07:38:47;7.30;;;6.45;;
23614;SDS011;11985;49.404;7.734;2023-06-22T07:43:49;8.23;;;6.63;;
23614;SDS011;11985;49.404;7.734;2023-06-22T07:48:52;7.60;;;6.80;;
23614;SDS011;11985;49.404;7.734;2023-06-22T07:53:54;10.13;;;6.68;;
23614;SDS011;11985;49.404;7.734;2023-06-22T07:58:55;11.75;;;6.55;;
23614;SDS011;11985;49.404;7.734;2023-06-22T08:04:00;9.73;;;6.00;;
23614;SDS011;11985;49.404;7.734;2023-06-22T08:09:02;8.77;;;5.43;;
23614;SDS011;11985;49.404;7.734;2023-06-22T08:14:04;7.72;;;5.20;;
23614;SDS011;11985;49.404;7.734;2023-06-22T08:19:07;8.98;;;5.57;;
23614;SDS011;11985;49.404;7.734;2023-06-22T08:24:08;7.60;;;5.65;;
23614;SDS011;11985;49.404;7.734;2023-06-22T08:29:10;8.20;;;5.40;;
23614;SDS011;11985;49.404;7.734;2023-06-22T08:34:13;9.30;;;5.28;;
23614;SDS011;11985;49.404;7.734;2023-06-22T08:39:15;7.80;;;5.33;;
23614;SDS011;11985;49.404;7.734;2023-06-22T08:44:18;10.98;;;5.05;;
23614;SDS011;11985;49.404;7.734;2023-06-22T08:49:22;9.50;;;5.37;;
23614;SDS011;11985;49.404;7.734;2023-06-22T08:54:23;7.07;;;5.20;;
23614;SDS011;11985;49.404;7.734;2023-06-22T08:59:25;6.95;;;5.10;;
23614;SDS011;11985;49.404;7.734;2023-06-22T09:04:28;8.13;;;5.40;;
23614;SDS011;11985;49.404;7.734;2023-06-22T09:09:29;9.35;;;5.53;;
23614;SDS011;11985;49.404;7.734;2023-06-22T09:14:31;11.82;;;6.28;;
23614;SDS011;11985;49.404;7.734;2023-06-22T09:19:34;6.63;;;5.32;;
23614;SDS011;11985;49.404;7.734;2023-06-22T09:24:36;9.02;;;5.72;;
23614;SDS011;11985;49.404;7.734;2023-06-22T09:29:37;7.53;;;5.30;;
23614;SDS011;11985;49.404;7.734;2023-06-22T09:34:40;7.45;;;5.22;;
23614;SDS011;11985;49.404;7.734;2023-06-22T09:39:42;12.70;;;5.28;;
23614;SDS011;11985;49.404;7.734;2023-06-22T09:44:43;10.85;;;5.25;;
23614;SDS011;11985;49.404;7.734;2023-06-22T09:49:46;8.60;;;5.53;;
23614;SDS011;11985;49.404;7.734;2023-06-22T09:54:48;9.70;;;5.78;;
23614;SDS011;11985;49.404;7.734;2023-06-22T09:59:49;6.65;;;5.28;;
23614;SDS011;11985;49.404;7.734;2023-06-22T10:04:52;9.13;;;5.28;;
23614;SDS011;11985;49.404;7.734;2023-06-22T10:09:54;10.40;;;5.63;;
23614;SDS011;11985;49.404;7.734;2023-06-22T10:14:55;10.50;;;4.82;;
23614;SDS011;11985;49.404;7.734;2023-06-22T10:19:58;10.10;;;5.30;;
23614;SDS011;11985;49.404;7.734;2023-06-22T10:25:00;10.82;;;5.63;;
23614;SDS011;11985;49.404;7.734;2023-06-22T10:30:02;14.57;;;5.32;;
23614;SDS011;11985;49.404;7.734;2023-06-22T10:35:07;7.23;;;5.10;;
23614;SDS011;11985;49.404;7.734;2023-06-22T10:40:11;11.45;;;5.93;;
23614;SDS011;11985;49.404;7.734;2023-06-22T10:45:14;9.95;;;4.55;;
23614;SDS011;11985;49.404;7.734;2023-06-22T10:50:17;11.75;;;5.20;;
23614;SDS011;11985;49.404;7.734;2023-06-22T10:55:20;7.25;;;5.00;;
23614;SDS011;11985;49.404;7.734;2023-06-22T11:00:21;10.10;;;5.18;;
23614;SDS011;11985;49.404;7.734;2023-06-22T11:05:24;10.80;;;5.05;;
23614;SDS011;11985;49.404;7.734;2023-06-22T11:10:26;11.65;;;5.30;;
23614;SDS011;11985;49.404;7.734;2023-06-22T11:15:28;13.43;;;5.30;;
23614;SDS011;11985;49.404;7.734;2023-06-22T11:20:31;12.45;;;5.03;;
23614;SDS011;11985;49.404;7.734;2023-06-22T11:25:34;11.55;;;5.13;;
23614;SDS011;11985;49.404;7.734;2023-06-22T11:35:40;16.58;;;5.25;;
23614;SDS011;11985;49.404;7.734;2023-06-22T11:40:42;12.30;;;4.97;;
23614;SDS011;11985;49.404;7.734;2023-06-22T11:45:44;11.93;;;5.05;;
23614;SDS011;11985;49.404;7.734;2023-06-22T11:50:46;8.68;;;4.97;;
23614;SDS011;11985;49.404;7.734;2023-06-22T11:55:48;10.88;;;4.88;;
23614;SDS011;11985;49.404;7.734;2023-06-22T12:00:50;14.60;;;5.47;;
23614;SDS011;11985;49.404;7.734;2023-06-22T12:05:53;13.82;;;5.35;;
23614;SDS011;11985;49.404;7.734;2023-06-22T12:10:55;10.65;;;5.30;;
23614;SDS011;11985;49.404;7.734;2023-06-22T12:15:56;12.45;;;5.32;;
23614;SDS011;11985;49.404;7.734;2023-06-22T12:20:59;15.75;;;4.93;;
23614;SDS011;11985;49.404;7.734;2023-06-22T12:26:00;14.80;;;5.07;;
23614;SDS011;11985;49.404;7.734;2023-06-22T12:31:02;14.27;;;5.22;;
23614;SDS011;11985;49.404;7.734;2023-06-22T12:36:05;10.65;;;5.25;;
23614;SDS011;11985;49.404;7.734;2023-06-22T12:41:07;14.13;;;5.05;;
23614;SDS011;11985;49.404;7.734;2023-06-22T12:46:08;8.27;;;4.65;;
23614;SDS011;11985;49.404;7.734;2023-06-22T12:51:11;14.82;;;4.93;;
23614;SDS011;11985;49.404;7.734;2023-06-22T12:56:13;11.35;;;4.55;;
23614;SDS011;11985;49.404;7.734;2023-06-22T13:01:14;16.77;;;5.05;;
23614;SDS011;11985;49.404;7.734;2023-06-22T13:11:21;11.13;;;4.63;;
23614;SDS011;11985;49.404;7.734;2023-06-22T13:16:22;21.92;;;5.05;;
23614;SDS011;11985;49.404;7.734;2023-06-22T13:21:25;13.65;;;4.47;;
23614;SDS011;11985;49.404;7.734;2023-06-22T13:26:27;12.65;;;4.65;;
23614;SDS011;11985;49.404;7.734;2023-06-22T13:31:29;12.57;;;5.03;;
23614;SDS011;11985;49.404;7.734;2023-06-22T13:36:32;15.13;;;5.30;;
23614;SDS011;11985;49.404;7.734;2023-06-22T13:41:33;15.07;;;4.97;;
23614;SDS011;11985;49.404;7.734;2023-06-22T13:46:35;13.43;;;5.15;;
23614;SDS011;11985;49.404;7.734;2023-06-22T13:51:38;16.88;;;4.82;;
23614;SDS011;11985;49.404;7.734;2023-06-22T13:56:40;15.60;;;4.78;;
23614;SDS011;11985;49.404;7.734;2023-06-22T14:01:41;23.02;;;5.50;;
23614;SDS011;11985;49.404;7.734;2023-06-22T14:06:45;16.42;;;4.70;;
23614;SDS011;11985;49.404;7.734;2023-06-22T14:11:46;14.75;;;4.95;;
23614;SDS011;11985;49.404;7.734;2023-06-22T14:16:48;8.48;;;3.97;;
23614;SDS011;11985;49.404;7.734;2023-06-22T14:21:51;18.25;;;4.55;;
23614;SDS011;11985;49.404;7.734;2023-06-22T14:26:53;14.00;;;4.32;;
23614;SDS011;11985;49.404;7.734;2023-06-22T14:31:55;16.08;;;4.45;;
23614;SDS011;11985;49.404;7.734;2023-06-22T14:36:58;27.10;;;4.65;;
23614;SDS011;11985;49.404;7.734;2023-06-22T14:41:59;13.35;;;4.47;;
23614;SDS011;11985;49.404;7.734;2023-06-22T14:47:01;12.77;;;4.50;;
23614;SDS011;11985;49.404;7.734;2023-06-22T14:52:05;19.05;;;4.30;;
23614;SDS011;11985;49.404;7.734;2023-06-22T14:57:07;11.98;;;4.15;;
23614;SDS011;11985;49.404;7.734;2023-06-22T15:02:08;19.95;;;3.92;;
23614;SDS011;11985;49.404;7.734;2023-06-22T15:07:11;11.63;;;3.85;;
23614;SDS011;11985;49.404;7.734;2023-06-22T15:12:13;16.43;;;3.57;;
23614;SDS011;11985;49.404;7.734;2023-06-22T15:17:15;13.70;;;3.55;;
23614;SDS011;11985;49.404;7.734;2023-06-22T15:22:17;11.93;;;4.00;;
23614;SDS011;11985;49.404;7.734;2023-06-22T15:27:19;16.25;;;4.75;;
23614;SDS011;11985;49.404;7.734;2023-06-22T15:32:21;13.07;;;5.13;;
23614;SDS011;11985;49.404;7.734;2023-06-22T15:37:24;15.88;;;5.07;;
23614;SDS011;11985;49.404;7.734;2023-06-22T15:42:25;14.17;;;2.90;;
23614;SDS011;11985;49.404;7.734;2023-06-22T15:47:27;10.60;;;2.80;;
23614;SDS011;11985;49.404;7.734;2023-06-22T15:52:30;10.60;;;2.67;;
23614;SDS011;11985;49.404;7.734;2023-06-22T15:57:31;9.13;;;2.80;;
23614;SDS011;11985;49.404;7.734;2023-06-22T16:02:34;11.17;;;3.00;;
23614;SDS011;11985;49.404;7.734;2023-06-22T16:07:37;8.57;;;3.03;;
23614;SDS011;11985;49.404;7.734;2023-06-22T16:12:41;8.85;;;2.92;;
23614;SDS011;11985;49.404;7.734;2023-06-22T16:17:43;8.45;;;2.40;;
23614;SDS011;11985;49.404;7.734;2023-06-22T16:22:47;10.70;;;3.00;;
23614;SDS011;11985;49.404;7.734;2023-06-22T16:27:48;13.07;;;2.60;;
23614;SDS011;11985;49.404;7.734;2023-06-22T16:32:50;6.30;;;2.33;;
23614;SDS011;11985;49.404;7.734;2023-06-22T16:37:55;4.90;;;2.25;;
23614;SDS011;11985;49.404;7.734;2023-06-22T16:42:56;8.95;;;2.78;;
23614;SDS011;11985;49.404;7.734;2023-06-22T16:47:58;5.80;;;2.60;;
23614;SDS011;11985;49.404;7.734;2023-06-22T16:53:01;9.60;;;2.67;;
23614;SDS011;11985;49.404;7.734;2023-06-22T16:58:02;9.93;;;2.67;;
23614;SDS011;11985;49.404;7.734;2023-06-22T17:03:05;5.30;;;2.25;;
23614;SDS011;11985;49.404;7.734;2023-06-22T17:08:12;7.88;;;2.70;;
23614;SDS011;11985;49.404;7.734;2023-06-22T17:13:15;5.85;;;2.60;;
23614;SDS011;11985;49.404;7.734;2023-06-22T17:18:17;9.10;;;2.38;;
23614;SDS011;11985;49.404;7.734;2023-06-22T17:23:22;6.83;;;2.53;;
23614;SDS011;11985;49.404;7.734;2023-06-22T17:28:25;7.30;;;2.85;;
23614;SDS011;11985;49.404;7.734;2023-06-22T17:33:27;6.32;;;2.13;;
23614;SDS011;11985;49.404;7.734;2023-06-22T17:38:30;7.05;;;2.30;;
23614;SDS011;11985;49.404;7.734;2023-06-22T17:43:32;4.18;;;2.08;;
23614;SDS011;11985;49.404;7.734;2023-06-22T17:48:33;5.57;;;1.80;;
23614;SDS011;11985;49.404;7.734;2023-06-22T17:53:36;3.97;;;1.98;;
23614;SDS011;11985;49.404;7.734;2023-06-22T17:58:38;4.20;;;1.70;;
23614;SDS011;11985;49.404;7.734;2023-06-22T18:03:39;3.55;;;1.20;;
23614;SDS011;11985;49.404;7.734;2023-06-22T18:08:42;3.97;;;1.30;;
23614;SDS011;11985;49.404;7.734;2023-06-22T18:13:44;1.60;;;1.15;;
23614;SDS011;11985;49.404;7.734;2023-06-22T18:18:45;4.00;;;1.20;;
23614;SDS011;11985;49.404;7.734;2023-06-22T18:23:50;5.63;;;1.48;;
23614;SDS011;11985;49.404;7.734;2023-06-22T18:33:56;2.88;;;1.02;;
23614;SDS011;11985;49.404;7.734;2023-06-22T18:39:01;1.83;;;0.77;;
23614;SDS011;11985;49.404;7.734;2023-06-22T18:44:07;1.55;;;0.75;;
23614;SDS011;11985;49.404;7.734;2023-06-22T18:49:12;1.75;;;0.70;;
23614;SDS011;11985;49.404;7.734;2023-06-22T18:54:19;4.25;;;0.70;;
23614;SDS011;11985;49.404;7.734;2023-06-22T19:04:43;2.13;;;1.20;;
23614;SDS011;11985;49.404;7.734;2023-06-22T19:09:52;2.63;;;1.25;;
23614;SDS011;11985;49.404;7.734;2023-06-22T19:15:29;1.73;;;1.23;;
23614;SDS011;11985;49.404;7.734;2023-06-22T19:20:32;1.30;;;1.00;;
23614;SDS011;11985;49.404;7.734;2023-06-22T19:25:36;3.20;;;1.02;;
23614;SDS011;11985;49.404;7.734;2023-06-22T19:30:39;2.53;;;0.93;;
23614;SDS011;11985;49.404;7.734;2023-06-22T19:35:41;1.77;;;1.13;;
23614;SDS011;11985;49.404;7.734;2023-06-22T19:40:45;1.42;;;1.00;;
23614;SDS011;11985;49.404;7.734;2023-06-22T19:45:46;1.30;;;1.00;;
23614;SDS011;11985;49.404;7.734;2023-06-22T19:50:48;1.83;;;0.98;;
23614;SDS011;11985;49.404;7.734;2023-06-22T19:55:51;2.15;;;1.20;;
23614;SDS011;11985;49.404;7.734;2023-06-22T20:00:54;1.60;;;1.05;;
23614;SDS011;11985;49.404;7.734;2023-06-22T20:06:07;1.17;;;1.00;;
23614;SDS011;11985;49.404;7.734;2023-06-22T20:11:10;2.72;;;1.13;;
23614;SDS011;11985;49.404;7.734;2023-06-22T20:16:12;1.50;;;1.13;;
23614;SDS011;11985;49.404;7.734;2023-06-22T20:21:14;2.50;;;1.38;;
23614;SDS011;11985;49.404;7.734;2023-06-22T20:26:17;1.65;;;1.15;;
23614;SDS011;11985;49.404;7.734;2023-06-22T20:31:19;1.92;;;1.30;;
23614;SDS011;11985;49.404;7.734;2023-06-22T20:36:23;3.22;;;1.35;;
23614;SDS011;11985;49.404;7.734;2023-06-22T20:41:26;1.52;;;1.35;;
23614;SDS011;11985;49.404;7.734;2023-06-22T20:51:31;1.83;;;1.63;;
23614;SDS011;11985;49.404;7.734;2023-06-22T20:56:34;1.83;;;1.45;;
23614;SDS011;11985;49.404;7.734;2023-06-22T21:01:35;3.25;;;1.67;;
23614;SDS011;11985;49.404;7.734;2023-06-22T21:06:37;1.88;;;1.45;;
23614;SDS011;11985;49.404;7.734;2023-06-22T21:11:40;2.63;;;1.77;;
23614;SDS011;11985;49.404;7.734;2023-06-22T21:16:42;4.22;;;1.48;;
23614;SDS011;11985;49.404;7.734;2023-06-22T21:21:44;3.75;;;1.73;;
23614;SDS011;11985;49.404;7.734;2023-06-22T21:26:47;1.50;;;1.40;;
23614;SDS011;11985;49.404;7.734;2023-06-22T21:31:49;1.55;;;1.23;;
23614;SDS011;11985;49.404;7.734;2023-06-22T21:36:50;2.72;;;1.35;;
23614;SDS011;11985;49.404;7.734;2023-06-22T21:41:53;1.73;;;1.27;;
23614;SDS011;11985;49.404;7.734;2023-06-22T21:46:55;2.60;;;1.20;;
23614;SDS011;11985;49.404;7.734;2023-06-22T21:51:56;1.08;;;0.98;;
23614;SDS011;11985;49.404;7.734;2023-06-22T21:56:59;1.20;;;0.98;;
23614;SDS011;11985;49.404;7.734;2023-06-22T22:02:01;2.03;;;0.90;;
23614;SDS011;11985;49.404;7.734;2023-06-22T22:07:03;0.98;;;0.82;;
23614;SDS011;11985;49.404;7.734;2023-06-22T22:12:08;0.80;;;0.80;;
23614;SDS011;11985;49.404;7.734;2023-06-22T22:17:10;1.10;;;1.00;;
23614;SDS011;11985;49.404;7.734;2023-06-22T22:22:11;3.22;;;0.90;;
23614;SDS011;11985;49.404;7.734;2023-06-22T22:27:15;1.38;;;1.10;;
23614;SDS011;11985;49.404;7.734;2023-06-22T22:32:16;1.55;;;1.20;;
23614;SDS011;11985;49.404;7.734;2023-06-22T22:37:18;1.65;;;1.20;;
23614;SDS011;11985;49.404;7.734;2023-06-22T22:42:21;3.85;;;1.60;;
23614;SDS011;11985;49.404;7.734;2023-06-22T22:47:22;3.03;;;2.08;;
23614;SDS011;11985;49.404;7.734;2023-06-22T22:52:24;3.03;;;2.30;;
23614;SDS011;11985;49.404;7.734;2023-06-22T22:57:30;4.05;;;2.85;;
23614;SDS011;11985;49.404;7.734;2023-06-22T23:02:31;7.55;;;3.40;;
23614;SDS011;11985;49.404;7.734;2023-06-22T23:07:33;5.18;;;3.83;;
23614;SDS011;11985;49.404;7.734;2023-06-22T23:12:36;5.15;;;3.63;;
23614;SDS011;11985;49.404;7.734;2023-06-22T23:17:38;5.03;;;3.90;;
23614;SDS011;11985;49.404;7.734;2023-06-22T23:22:39;5.57;;;3.72;;
23614;SDS011;11985;49.404;7.734;2023-06-22T23:27:42;5.03;;;3.58;;
23614;SDS011;11985;49.404;7.734;2023-06-22T23:32:44;7.00;;;4.05;;
23614;SDS011;11985;49.404;7.734;2023-06-22T23:37:45;8.13;;;4.65;;
23614;SDS011;11985;49.404;7.734;2023-06-22T23:42:48;6.50;;;4.43;;
23614;SDS011;11985;49.404;7.734;2023-06-22T23:47:50;7.18;;;5.20;;
23614;SDS011;11985;49.404;7.734;2023-06-22T23:52:52;8.80;;;5.78;;
23614;SDS011;11985;49.404;7.734;2023-06-22T23:57:55;8.38;;;5.75;;
